Time;durP1;ratioP1;P1;durP2;ratioP2;P2;SDS_P1;SDS_P2;PMS_P1;PMS_P2;Temp;Humidity;BMP_temperature;BMP_pressure;BME280_temperature;BME280_humidity;BME280_pressure;Samples;Min_cycle;Max_cycle;Signal;HPM_P1;HPM_P2
2023/09/03 00:00:41;;;;;;;10.13;4.88;;;;;;;17.67;100.00;101120.78;4980231;28;20027;-74
2023/09/03 00:03:06;;;;;;;8.77;5.10;;;;;;;17.65;100.00;101124.72;4977478;28;20049;-75
2023/09/03 00:05:33;;;;;;;10.35;5.15;;;;;;;17.60;100.00;101124.88;4996312;28;20101;-74
2023/09/03 00:07:58;;;;;;;10.13;5.78;;;;;;;17.57;100.00;101122.72;4979868;28;20399;-74
2023/09/03 00:10:23;;;;;;;13.63;7.75;;;;;;;17.55;100.00;101133.47;4980532;28;20030;-74
2023/09/03 00:12:49;;;;;;;10.32;6.00;;;;;;;17.53;100.00;101132.97;4967485;28;20135;-75
2023/09/03 00:15:15;;;;;;;7.72;4.80;;;;;;;17.54;100.00;101134.63;4980320;28;20069;-74
2023/09/03 00:17:43;;;;;;;9.82;5.15;;;;;;;17.53;100.00;101132.97;4980457;28;20471;-74
2023/09/03 00:20:10;;;;;;;6.95;4.25;;;;;;;17.52;100.00;101124.84;4991117;28;20038;-75
2023/09/03 00:22:35;;;;;;;12.63;6.60;;;;;;;17.51;100.00;101131.63;4983573;28;20049;-74
2023/09/03 00:25:01;;;;;;;12.88;6.72;;;;;;;17.52;100.00;101136.91;4999718;28;20046;-75
2023/09/03 00:27:27;;;;;;;9.18;4.93;;;;;;;17.48;100.00;101144.34;4999248;28;20030;-74
2023/09/03 00:29:53;;;;;;;11.90;5.78;;;;;;;17.48;100.00;101138.72;5008726;28;20037;-74
2023/09/03 00:32:19;;;;;;;9.65;5.22;;;;;;;17.48;100.00;101132.28;5006250;28;20057;-74
2023/09/03 00:34:45;;;;;;;14.48;7.90;;;;;;;17.37;100.00;101124.16;5029090;28;20033;-74
2023/09/03 00:37:11;;;;;;;14.63;9.02;;;;;;;17.29;100.00;101121.31;5018882;28;20037;-75
2023/09/03 00:39:37;;;;;;;16.73;9.60;;;;;;;17.25;100.00;101117.53;5042036;28;20030;-75
2023/09/03 00:42:03;;;;;;;20.42;9.93;;;;;;;17.18;100.00;101110.38;5031231;28;20055;-74
2023/09/03 00:44:28;;;;;;;14.07;8.60;;;;;;;17.08;100.00;101112.69;5032535;28;20051;-74
2023/09/03 00:46:54;;;;;;;20.38;11.93;;;;;;;17.03;100.00;101119.25;5041815;28;20543;-74
2023/09/03 00:49:20;;;;;;;25.38;14.32;;;;;;;17.04;100.00;101120.06;5021983;28;20025;-75
2023/09/03 00:51:45;;;;;;;20.40;10.57;;;;;;;17.01;100.00;101121.53;5018629;28;20030;-74
2023/09/03 00:54:11;;;;;;;24.08;12.98;;;;;;;16.98;100.00;101122.19;5038500;28;20035;-75
2023/09/03 00:56:36;;;;;;;18.77;12.07;;;;;;;16.97;100.00;101120.53;5018478;28;20026;-75
2023/09/03 00:59:02;;;;;;;25.55;14.15;;;;;;;16.95;100.00;101122.84;5041454;28;20111;-74
2023/09/03 01:01:27;;;;;;;25.65;12.85;;;;;;;16.98;100.00;101133.41;5038263;28;20057;-74
2023/09/03 01:03:53;;;;;;;25.27;13.57;;;;;;;16.98;100.00;101117.41;5021541;28;20056;-74
2023/09/03 01:06:18;;;;;;;22.52;13.02;;;;;;;17.03;100.00;101115.63;5005476;28;20025;-75
2023/09/03 01:08:44;;;;;;;18.55;10.00;;;;;;;17.08;100.00;101116.31;5021716;28;20083;-74
2023/09/03 01:11:36;;;;;;;19.73;11.18;;;;;;;17.06;100.00;101117.78;5037672;28;20390;-74
2023/09/03 01:14:13;;;;;;;17.23;9.77;;;;;;;17.10;100.00;101111.16;5038058;28;20033;-74
2023/09/03 01:17:01;;;;;;;20.02;10.90;;;;;;;17.13;100.00;101112.50;5039276;28;20064;-75
2023/09/03 01:20:00;;;;;;;27.75;15.38;;;;;;;17.12;100.00;101106.06;5021796;28;20445;-74
2023/09/03 01:22:37;;;;;;;31.42;15.32;;;;;;;17.12;100.00;101102.44;5023104;28;20033;-74
2023/09/03 01:25:27;;;;;;;25.33;12.95;;;;;;;17.14;100.00;101100.16;5017973;28;20033;-75
2023/09/03 01:27:58;;;;;;;25.00;12.57;;;;;;;17.18;100.00;101099.16;5027234;28;20029;-75
2023/09/03 01:30:24;;;;;;;34.08;15.93;;;;;;;17.16;100.00;101104.28;5038620;28;20140;-74
2023/09/03 01:32:50;;;;;;;35.63;16.90;;;;;;;17.15;100.00;101113.00;5021173;28;20091;-74
2023/09/03 01:35:16;;;;;;;31.05;15.98;;;;;;;17.16;100.00;101106.25;5007908;28;20030;-75
2023/09/03 01:37:41;;;;;;;32.22;17.42;;;;;;;17.17;100.00;101108.72;5001407;28;20038;-74
2023/09/03 01:40:16;;;;;;;37.75;19.02;;;;;;;17.18;100.00;101109.56;5037339;28;20025;-74
2023/09/03 01:42:42;;;;;;;32.47;16.60;;;;;;;17.22;100.00;101104.13;5033852;28;20040;-74
2023/09/03 01:45:08;;;;;;;33.58;18.70;;;;;;;17.19;100.00;101106.44;5040974;28;20426;-74
2023/09/03 01:47:38;;;;;;;40.10;21.67;;;;;;;17.23;100.00;101100.19;5020968;28;20061;-75
2023/09/03 01:50:15;;;;;;;35.25;17.42;;;;;;;17.27;100.00;101084.31;5020671;28;20032;-75
2023/09/03 01:52:49;;;;;;;31.52;18.08;;;;;;;17.29;100.00;101098.88;5037307;28;20033;-74
2023/09/03 01:55:25;;;;;;;26.30;14.05;;;;;;;17.33;100.00;101097.09;5036930;28;20157;-74
2023/09/03 01:57:53;;;;;;;23.42;13.65;;;;;;;17.38;100.00;101091.28;5020614;28;20063;-74
2023/09/03 02:00:18;;;;;;;31.88;18.20;;;;;;;17.38;100.00;101092.13;5020319;28;20040;-75
2023/09/03 02:02:45;;;;;;;18.08;10.85;;;;;;;17.43;100.00;101079.91;5029618;28;20026;-74
2023/09/03 02:05:13;;;;;;;28.27;16.92;;;;;;;17.48;100.00;101078.94;5020585;28;20040;-75
2023/09/03 02:07:40;;;;;;;44.03;21.17;;;;;;;17.46;100.00;101084.06;5016610;28;20084;-75
2023/09/03 02:10:05;;;;;;;33.50;18.23;;;;;;;17.43;100.00;101077.09;5009702;28;20401;-74
2023/09/03 02:12:31;;;;;;;26.55;14.45;;;;;;;17.42;100.00;101069.84;5036736;28;20100;-74
2023/09/03 02:14:56;;;;;;;34.88;18.13;;;;;;;17.45;100.00;101074.81;5020723;28;20028;-75
2023/09/03 02:17:23;;;;;;;35.85;18.58;;;;;;;17.44;100.00;101075.97;5049989;28;20040;-74
2023/09/03 02:19:49;;;;;;;36.42;19.55;;;;;;;17.42;100.00;101081.91;5036711;28;20037;-74
2023/09/03 02:22:15;;;;;;;28.58;14.50;;;;;;;17.42;100.00;101081.06;5020294;28;20052;-74
2023/09/03 02:24:41;;;;;;;25.35;15.15;;;;;;;17.46;100.00;101076.44;5020413;28;20039;-74
2023/09/03 02:27:06;;;;;;;26.58;16.23;;;;;;;17.46;100.00;101076.44;5036338;28;20398;-74
2023/09/03 02:29:32;;;;;;;27.35;14.75;;;;;;;17.48;100.00;101071.34;5036536;28;20052;-75
2023/09/03 02:31:57;;;;;;;18.60;11.48;;;;;;;17.51;100.00;101061.44;5003791;28;20541;-75
2023/09/03 02:34:23;;;;;;;22.70;11.13;;;;;;;17.53;100.00;101067.56;5029801;28;20064;-75
2023/09/03 02:36:48;;;;;;;17.35;10.35;;;;;;;17.54;100.00;101063.59;5000298;28;20030;-75
2023/09/03 02:39:14;;;;;;;19.40;9.98;;;;;;;17.53;100.00;101065.56;5020167;28;20037;-75
2023/09/03 02:41:39;;;;;;;16.05;9.50;;;;;;;17.55;100.00;101062.41;5024679;28;20088;-75
2023/09/03 02:44:07;;;;;;;17.48;9.80;;;;;;;17.55;100.00;101057.66;5000466;28;20152;-75
2023/09/03 02:46:32;;;;;;;15.02;8.55;;;;;;;17.55;100.00;101049.22;5014045;28;20087;-75
2023/09/03 02:48:58;;;;;;;15.35;8.38;;;;;;;17.54;100.00;101032.69;5016717;28;20092;-75
2023/09/03 02:51:23;;;;;;;16.42;8.82;;;;;;;17.51;100.00;101025.75;5029955;28;20041;-75
2023/09/03 02:53:51;;;;;;;13.07;8.02;;;;;;;17.49;100.00;101018.81;5003481;28;20025;-75
2023/09/03 02:56:16;;;;;;;13.65;8.65;;;;;;;17.48;100.00;101017.16;5019696;28;20080;-75
2023/09/03 02:58:42;;;;;;;14.43;7.95;;;;;;;17.45;100.00;101009.41;5000186;28;20026;-75
2023/09/03 03:01:08;;;;;;;13.48;8.32;;;;;;;17.45;100.00;100998.19;5033464;28;20071;-75
2023/09/03 03:03:34;;;;;;;12.60;7.90;;;;;;;17.42;100.00;100992.06;5003222;28;20025;-75
2023/09/03 03:06:00;;;;;;;12.88;8.00;;;;;;;17.41;100.00;100997.97;5003415;28;20025;-75
2023/09/03 03:08:25;;;;;;;11.13;7.68;;;;;;;17.38;100.00;101002.31;5003157;28;20034;-74
2023/09/03 03:10:51;;;;;;;11.63;6.90;;;;;;;17.35;100.00;101002.09;5055737;28;20501;-75
2023/09/03 03:13:16;;;;;;;10.05;6.90;;;;;;;17.32;100.00;101000.78;5036293;28;20144;-74
2023/09/03 03:15:43;;;;;;;11.48;7.32;;;;;;;17.30;100.00;101016.28;5017237;28;20037;-75
2023/09/03 03:18:08;;;;;;;12.90;7.95;;;;;;;17.24;100.00;101009.19;5019494;28;20076;-75
2023/09/03 03:20:35;;;;;;;11.32;7.50;;;;;;;17.20;100.00;101018.28;5019562;28;20037;-75
2023/09/03 03:23:00;;;;;;;11.82;7.50;;;;;;;17.16;100.00;101028.50;4999828;28;20065;-75
2023/09/03 03:25:26;;;;;;;13.10;7.20;;;;;;;17.13;100.00;101037.59;5046937;28;20070;-75
2023/09/03 03:27:51;;;;;;;11.90;8.13;;;;;;;17.08;100.00;101037.72;5035941;28;20033;-75
2023/09/03 03:30:17;;;;;;;13.88;9.02;;;;;;;17.08;100.00;101042.53;5019420;28;20072;-74
2023/09/03 03:32:43;;;;;;;14.23;8.13;;;;;;;17.03;100.00;101040.69;5027050;28;20052;-75
2023/09/03 03:35:09;;;;;;;10.93;8.13;;;;;;;17.04;100.00;101050.75;5008437;28;20037;-75
2023/09/03 03:37:34;;;;;;;10.20;6.97;;;;;;;17.03;100.00;101051.06;5035731;28;20032;-75
2023/09/03 03:40:00;;;;;;;11.38;7.70;;;;;;;17.03;100.00;101057.50;5002801;28;20025;-75
2023/09/03 03:42:25;;;;;;;10.13;7.85;;;;;;;17.01;100.00;101064.59;5007027;28;20127;-75
2023/09/03 03:44:51;;;;;;;10.00;6.78;;;;;;;16.99;100.00;101067.72;5000023;28;20030;-75
2023/09/03 03:47:16;;;;;;;9.45;6.40;;;;;;;16.99;100.00;101073.31;5023115;28;20052;-75
2023/09/03 03:49:42;;;;;;;8.93;6.75;;;;;;;16.96;100.00;101065.56;5039464;28;20033;-75
2023/09/03 03:52:07;;;;;;;8.57;6.00;;;;;;;16.96;100.00;101059.94;5003575;28;20038;-75
2023/09/03 03:54:33;;;;;;;8.07;5.90;;;;;;;16.94;100.00;101065.06;5016494;28;20095;-75
2023/09/03 03:56:58;;;;;;;8.95;5.95;;;;;;;16.98;100.00;101066.06;5039340;28;20401;-75
2023/09/03 03:59:24;;;;;;;7.20;5.53;;;;;;;16.95;100.00;101069.53;5038970;28;20389;-75
2023/09/03 04:01:49;;;;;;;6.97;5.47;;;;;;;16.95;100.00;101075.13;5050885;28;20032;-75
2023/09/03 04:04:15;;;;;;;7.95;5.70;;;;;;;16.97;100.00;101086.88;5006162;28;20030;-74
2023/09/03 04:06:40;;;;;;;7.88;5.10;;;;;;;16.93;100.00;101086.66;5006590;28;20401;-75
2023/09/03 04:09:05;;;;;;;7.13;5.60;;;;;;;16.93;100.00;101081.06;5022172;28;20041;-75
2023/09/03 04:11:31;;;;;;;6.70;5.40;;;;;;;16.93;100.00;101083.03;5019190;28;20029;-74
2023/09/03 04:13:56;;;;;;;6.60;5.10;;;;;;;16.89;100.00;101085.69;5038900;28;20055;-75
2023/09/03 04:16:22;;;;;;;6.95;5.35;;;;;;;16.88;100.00;101091.59;5002973;28;20030;-74
2023/09/03 04:18:49;;;;;;;9.82;7.55;;;;;;;16.81;100.00;101082.81;5019755;28;20034;-75
2023/09/03 04:21:14;;;;;;;8.32;6.57;;;;;;;16.81;100.00;101080.03;5039049;28;20037;-75
2023/09/03 04:23:40;;;;;;;8.80;5.93;;;;;;;16.83;100.00;101080.53;5006269;28;20057;-75
2023/09/03 04:26:05;;;;;;;7.85;5.88;;;;;;;16.83;100.00;101086.97;5002474;28;20034;-74
2023/09/03 04:28:31;;;;;;;6.88;5.20;;;;;;;16.85;100.00;101100.66;5016184;28;20448;-75
2023/09/03 04:31:00;;;;;;;5.85;4.70;;;;;;;16.83;100.00;101100.16;5022299;28;20103;-74
2023/09/03 04:33:25;;;;;;;7.55;4.93;;;;;;;16.84;100.00;101097.03;5022866;28;20061;-74
2023/09/03 04:35:58;;;;;;;6.63;5.10;;;;;;;16.84;100.00;101099.84;5009076;28;20470;-75
2023/09/03 04:38:24;;;;;;;5.93;5.00;;;;;;;16.84;100.00;101099.00;5040234;28;20072;-75
2023/09/03 04:40:49;;;;;;;6.35;5.05;;;;;;;16.87;100.00;101103.97;5022006;28;20091;-75
2023/09/03 04:43:15;;;;;;;6.22;5.38;;;;;;;16.86;100.00;101108.75;5034784;28;20033;-75
2023/09/03 04:45:51;;;;;;;4.65;4.15;;;;;;;16.86;100.00;101119.16;5022177;28;20083;-75
2023/09/03 04:48:17;;;;;;;5.18;4.68;;;;;;;16.87;100.00;101127.25;5021990;28;20030;-75
2023/09/03 04:50:42;;;;;;;4.72;4.22;;;;;;;16.87;100.00;101115.19;5030128;28;20040;-75
2023/09/03 04:53:08;;;;;;;4.63;3.92;;;;;;;16.86;100.00;101125.59;5028457;28;20040;-74
2023/09/03 04:55:36;;;;;;;5.40;4.47;;;;;;;16.85;100.00;101131.50;5003799;28;20478;-75
2023/09/03 04:58:01;;;;;;;5.30;4.32;;;;;;;16.87;100.00;101134.84;5032285;28;20029;-75
2023/09/03 05:00:30;;;;;;;4.72;4.22;;;;;;;16.88;100.00;101137.34;5017630;28;20033;-75
2023/09/03 05:02:58;;;;;;;6.80;5.82;;;;;;;16.85;100.00;101142.72;5000096;28;20057;-75
2023/09/03 05:05:24;;;;;;;4.85;4.35;;;;;;;16.87;100.00;101143.25;5018795;28;20478;-74
2023/09/03 05:07:49;;;;;;;5.40;4.90;;;;;;;16.88;100.00;101144.91;5029954;28;20064;-75
2023/09/03 05:10:15;;;;;;;4.40;3.85;;;;;;;16.87;100.00;101154.47;5001653;28;20431;-75
2023/09/03 05:12:40;;;;;;;6.40;5.80;;;;;;;16.85;100.00;101153.97;5067290;28;20033;-75
2023/09/03 05:15:12;;;;;;;4.30;3.90;;;;;;;16.83;100.00;101151.50;5021684;28;20448;-75
2023/09/03 05:17:38;;;;;;;7.20;5.18;;;;;;;16.83;100.00;101156.28;5021934;28;20033;-75
2023/09/03 05:20:04;;;;;;;4.53;4.05;;;;;;;16.82;100.00;101155.44;5005135;28;20025;-75
2023/09/03 05:22:29;;;;;;;4.97;4.47;;;;;;;16.85;100.00;101153.97;5021429;28;20060;-75
2023/09/03 05:24:55;;;;;;;5.15;3.92;;;;;;;16.82;100.00;101158.22;5001925;28;20025;-75
2023/09/03 05:27:20;;;;;;;5.38;4.22;;;;;;;16.82;100.00;101157.41;5050520;28;20033;-75
2023/09/03 05:29:46;;;;;;;5.68;3.78;;;;;;;16.80;100.00;101154.09;5021087;28;20049;-75
2023/09/03 05:32:11;;;;;;;4.30;3.80;;;;;;;16.81;100.00;101161.38;5037590;28;20033;-75
2023/09/03 05:34:37;;;;;;;4.75;4.32;;;;;;;16.82;100.00;101163.00;5017836;28;20033;-75
2023/09/03 05:37:03;;;;;;;4.32;3.72;;;;;;;16.80;100.00;101162.50;5036318;28;20065;-75
2023/09/03 05:39:29;;;;;;;5.55;4.32;;;;;;;16.79;100.00;101169.28;5018290;28;20048;-75
2023/09/03 05:41:54;;;;;;;4.43;3.88;;;;;;;16.74;100.00;101179.47;5050044;28;20029;-75
2023/09/03 05:44:19;;;;;;;3.92;3.53;;;;;;;16.73;100.00;101174.97;5020969;28;20029;-75
2023/09/03 05:46:45;;;;;;;4.38;3.97;;;;;;;16.74;100.00;101181.41;5004693;28;20036;-75
2023/09/03 05:49:10;;;;;;;4.80;4.22;;;;;;;16.73;100.00;101191.81;5020930;28;20037;-75
2023/09/03 05:51:36;;;;;;;5.03;3.95;;;;;;;16.74;100.00;101187.88;5020841;28;20037;-75
2023/09/03 05:54:02;;;;;;;3.90;3.50;;;;;;;16.74;100.00;101193.47;5037413;28;20104;-75
2023/09/03 05:56:28;;;;;;;11.98;10.00;;;;;;;16.62;100.00;101204.44;5020527;28;20076;-75
2023/09/03 05:58:53;;;;;;;4.93;4.40;;;;;;;16.66;100.00;101183.03;5037209;28;20034;-75
2023/09/03 06:01:19;;;;;;;4.50;3.85;;;;;;;16.68;100.00;101186.31;5046194;28;20399;-75
2023/09/03 06:03:44;;;;;;;5.03;3.65;;;;;;;16.73;100.00;101188.19;5036619;28;20040;-75
2023/09/03 06:06:10;;;;;;;6.75;5.75;;;;;;;16.72;100.00;101192.13;5045200;28;20025;-75
2023/09/03 06:08:36;;;;;;;4.43;4.03;;;;;;;16.75;100.00;101185.88;4999798;28;20026;-75
2023/09/03 06:11:02;;;;;;;10.52;7.28;;;;;;;16.74;100.00;101196.28;5020276;28;20044;-75
2023/09/03 06:13:27;;;;;;;5.38;3.72;;;;;;;16.78;100.00;101190.06;5020560;28;20547;-75
2023/09/03 06:15:53;;;;;;;4.63;3.67;;;;;;;16.81;100.00;101195.03;5023281;28;20032;-75
2023/09/03 06:18:19;;;;;;;6.82;5.75;;;;;;;16.84;100.00;101189.59;5014274;28;20056;-75
2023/09/03 06:20:44;;;;;;;3.25;2.95;;;;;;;16.87;100.00;101196.56;5003913;28;20433;-75
2023/09/03 06:23:11;;;;;;;3.80;3.40;;;;;;;16.90;100.00;101185.50;5020438;28;20026;-75
2023/09/03 06:25:38;;;;;;;4.00;3.30;;;;;;;16.94;100.00;101194.13;5036536;28;20034;-75
2023/09/03 06:28:03;;;;;;;6.40;4.40;;;;;;;16.96;100.00;101197.44;5036787;28;20111;-75
2023/09/03 06:30:29;;;;;;;4.80;3.60;;;;;;;17.00;100.00;101209.69;5036354;28;20053;-75
2023/09/03 06:32:54;;;;;;;5.10;4.60;;;;;;;17.03;100.00;101213.81;5000566;28;20030;-74
2023/09/03 06:35:20;;;;;;;3.78;3.33;;;;;;;17.07;100.00;101217.63;5019705;28;20041;-75
2023/09/03 06:37:45;;;;;;;3.30;3.00;;;;;;;17.12;100.00;101218.31;5020341;28;20033;-74
2023/09/03 06:40:14;;;;;;;3.10;2.80;;;;;;;17.14;100.00;101227.25;5036136;28;20425;-74
2023/09/03 06:42:41;;;;;;;3.20;2.90;;;;;;;17.19;100.00;101235.56;5000534;28;20057;-74
2023/09/03 06:45:07;;;;;;;5.10;4.60;;;;;;;17.22;100.00;101228.47;5018356;28;20041;-75
2023/09/03 06:47:32;;;;;;;3.30;3.00;;;;;;;17.27;100.00;101236.72;5019940;28;20389;-74
2023/09/03 06:49:58;;;;;;;11.65;8.48;;;;;;;17.31;100.00;101236.94;5036397;28;20029;-74
2023/09/03 06:52:24;;;;;;;13.60;8.32;;;;;;;17.36;100.00;101231.19;4983814;28;20030;-74
2023/09/03 06:54:50;;;;;;;7.07;6.38;;;;;;;17.39;100.00;101225.75;5034001;28;20029;-74
2023/09/03 06:57:16;;;;;;;8.75;6.50;;;;;;;17.46;100.00;101221.63;5003375;28;20045;-75
2023/09/03 06:59:41;;;;;;;7.68;6.57;;;;;;;17.45;100.00;101215.19;5003316;28;20060;-75
2023/09/03 07:02:07;;;;;;;6.18;5.57;;;;;;;17.50;100.00;101200.19;5017058;28;20036;-75
2023/09/03 07:04:36;;;;;;;7.07;6.18;;;;;;;17.54;100.00;101202.00;5003221;28;20040;-75
2023/09/03 07:07:04;;;;;;;6.75;6.07;;;;;;;17.55;100.00;101212.13;5036364;28;20025;-75
2023/09/03 07:09:31;;;;;;;7.18;5.60;;;;;;;17.58;100.00;101213.44;5022477;28;20349;-75
2023/09/03 07:11:57;;;;;;;4.10;3.70;;;;;;;17.61;100.00;101213.63;5009936;28;20095;-75
2023/09/03 07:14:22;;;;;;;3.33;3.03;;;;;;;17.65;100.00;101213.78;5032629;28;20038;-75
2023/09/03 07:16:47;;;;;;;11.27;9.38;;;;;;;17.71;100.00;101220.91;5019526;28;20030;-74
2023/09/03 07:19:13;;;;;;;8.10;7.30;;;;;;;17.70;100.00;101224.06;5019421;28;20037;-74
2023/09/03 07:21:38;;;;;;;7.10;6.35;;;;;;;17.75;100.00;101235.97;5022936;28;20034;-74
2023/09/03 07:24:04;;;;;;;10.75;9.63;;;;;;;17.79;100.00;101236.19;5040294;28;20474;-74
2023/09/03 07:26:30;;;;;;;12.93;9.65;;;;;;;17.81;100.00;101245.13;5023245;28;20036;-74
2023/09/03 07:28:55;;;;;;;12.30;9.52;;;;;;;17.86;100.00;101256.22;5039947;28;20030;-75
2023/09/03 07:31:21;;;;;;;14.48;10.68;;;;;;;17.91;100.00;101250.41;5023320;28;20046;-74
2023/09/03 07:33:47;;;;;;;12.40;10.00;;;;;;;17.95;100.00;101256.25;5021570;28;20084;-75
2023/09/03 07:36:13;;;;;;;9.30;7.78;;;;;;;17.96;100.00;101255.91;5008760;28;20049;-75
2023/09/03 07:38:38;;;;;;;9.55;7.40;;;;;;;18.01;100.00;101261.38;5033227;28;20057;-75
2023/09/03 07:41:04;;;;;;;9.23;7.70;;;;;;;18.04;100.00;101249.47;5019900;28;20025;-75
2023/09/03 07:43:29;;;;;;;12.10;9.85;;;;;;;18.09;100.00;101249.31;5035690;28;20033;-75
2023/09/03 07:45:55;;;;;;;10.85;8.73;;;;;;;18.12;100.00;101245.03;5023324;28;20532;-75
2023/09/03 07:48:21;;;;;;;12.68;10.23;;;;;;;18.20;100.00;101249.03;5023138;28;20108;-75
2023/09/03 07:50:46;;;;;;;13.18;11.00;;;;;;;18.24;100.00;101250.00;5006667;28;20081;-75
2023/09/03 07:53:12;;;;;;;12.55;9.68;;;;;;;18.28;100.00;101245.41;5021945;28;20029;-75
2023/09/03 07:55:37;;;;;;;8.27;7.20;;;;;;;18.37;100.00;101249.03;5019394;28;20038;-74
2023/09/03 07:58:03;;;;;;;11.48;9.25;;;;;;;18.46;100.00;101249.88;5036530;28;20393;-75
2023/09/03 08:00:29;;;;;;;14.75;11.63;;;;;;;18.57;100.00;101255.19;5019411;28;20034;-75
2023/09/03 08:02:54;;;;;;;9.55;8.50;;;;;;;18.70;100.00;101254.19;5049750;28;20474;-74
2023/09/03 08:05:20;;;;;;;13.48;11.50;;;;;;;18.81;100.00;101254.72;5039243;28;20044;-75
2023/09/03 08:07:45;;;;;;;10.50;9.30;;;;;;;18.95;100.00;101250.56;5022279;28;20116;-74
2023/09/03 08:10:11;;;;;;;14.10;9.55;;;;;;;19.13;100.00;101253.34;5038956;28;20061;-74
2023/09/03 08:12:39;;;;;;;12.05;10.27;;;;;;;19.31;100.00;101249.34;5022525;28;20037;-74
2023/09/03 08:15:07;;;;;;;11.38;10.15;;;;;;;19.51;100.00;101255.41;5039160;28;20030;-74
2023/09/03 08:17:32;;;;;;;10.27;8.68;;;;;;;19.69;100.00;101256.19;5006552;28;20045;-75
2023/09/03 08:19:58;;;;;;;7.97;6.30;;;;;;;19.91;100.00;101257.91;5022745;28;20033;-74
2023/09/03 08:22:23;;;;;;;8.20;7.40;;;;;;;20.11;100.00;101251.50;5040089;28;20034;-74
2023/09/03 08:24:49;;;;;;;8.25;6.95;;;;;;;20.29;100.00;101246.59;5039047;28;20038;-74
2023/09/03 08:27:14;;;;;;;7.55;6.32;;;;;;;20.48;100.00;101243.31;5022360;28;20025;-74
2023/09/03 08:29:40;;;;;;;8.23;6.63;;;;;;;20.69;100.00;101241.31;5022364;28;20099;-75
2023/09/03 08:32:06;;;;;;;6.30;5.40;;;;;;;20.90;100.00;101238.50;5021359;28;20033;-74
2023/09/03 08:34:31;;;;;;;6.22;5.10;;;;;;;21.10;100.00;101233.16;5035058;28;20033;-74
2023/09/03 08:36:57;;;;;;;6.00;3.85;;;;;;;21.33;100.00;101227.91;5066591;28;20389;-74
2023/09/03 08:39:22;;;;;;;6.25;4.50;;;;;;;21.56;100.00;101220.69;5005724;28;20091;-74
2023/09/03 08:41:47;;;;;;;6.97;5.15;;;;;;;21.75;100.00;101216.44;5018186;28;20026;-74
2023/09/03 08:44:29;;;;;;;6.22;4.57;;;;;;;21.99;100.00;101210.78;5022278;28;20030;-75
2023/09/03 08:47:01;;;;;;;4.93;4.13;;;;;;;22.22;100.00;101219.63;5022504;28;20509;-74
2023/09/03 08:49:31;;;;;;;4.97;4.28;;;;;;;22.39;100.00;101218.50;4994730;28;20470;-74
2023/09/03 08:51:57;;;;;;;5.72;3.75;;;;;;;22.56;100.00;101208.91;5020660;28;20053;-74
2023/09/03 08:54:24;;;;;;;5.75;4.70;;;;;;;22.78;100.00;101209.53;5005599;28;20036;-75
2023/09/03 08:56:50;;;;;;;7.15;4.70;;;;;;;22.92;100.00;101201.47;5021656;28;20076;-74
2023/09/03 08:59:16;;;;;;;7.43;4.07;;;;;;;23.09;100.00;101208.84;5038090;28;20030;-74
2023/09/03 09:01:45;;;;;;;5.40;3.72;;;;;;;23.23;100.00;101209.22;5048624;28;20113;-74
2023/09/03 09:04:10;;;;;;;5.70;4.15;;;;;;;23.42;100.00;101209.31;5027378;28;20215;-74
2023/09/03 09:06:38;;;;;;;5.38;4.28;;;;;;;23.61;100.00;101204.94;5025412;28;20056;-74
2023/09/03 09:09:03;;;;;;;5.00;3.60;;;;;;;23.82;100.00;101205.53;5034571;28;20486;-75
2023/09/03 09:11:33;;;;;;;3.65;2.78;;;;;;;24.04;100.00;101194.66;5009122;28;20039;-75
2023/09/03 09:13:59;;;;;;;6.38;4.07;;;;;;;24.13;100.00;101189.63;5051065;28;20065;-74
2023/09/03 09:16:24;;;;;;;5.55;3.40;;;;;;;24.27;100.00;101195.63;5004098;28;20097;-75
2023/09/03 09:18:50;;;;;;;3.97;3.20;;;;;;;24.41;100.00;101185.78;5040608;28;20045;-74
2023/09/03 09:21:18;;;;;;;5.88;3.92;;;;;;;24.52;100.00;101193.38;5021426;28;20037;-75
2023/09/03 09:23:43;;;;;;;5.95;3.80;;;;;;;24.67;100.00;101196.50;4994946;28;20045;-74
2023/09/03 09:26:17;;;;;;;5.25;3.67;;;;;;;24.79;100.00;101189.84;5037352;28;20037;-74
2023/09/03 09:29:02;;;;;;;4.47;2.53;;;;;;;25.00;100.00;101187.44;5037572;28;20104;-74
2023/09/03 09:31:29;;;;;;;4.90;2.63;;;;;;;25.12;100.00;101178.72;5001266;28;20050;-74
2023/09/03 09:33:55;;;;;;;6.68;3.30;;;;;;;25.25;100.00;101170.88;5016118;28;20400;-75
2023/09/03 09:36:20;;;;;;;4.70;2.22;;;;;;;25.39;100.00;101173.16;5043970;28;20029;-74
2023/09/03 09:38:46;;;;;;;3.22;2.30;;;;;;;25.57;100.00;101173.44;5024421;28;20083;-74
2023/09/03 09:41:21;;;;;;;4.03;2.78;;;;;;;25.68;100.00;101173.63;5045512;28;20032;-75
2023/09/03 09:43:47;;;;;;;5.05;3.03;;;;;;;25.87;100.00;101167.88;5017575;28;20116;-75
2023/09/03 09:46:24;;;;;;;2.53;1.73;;;;;;;26.04;100.00;101169.34;5020850;28;20044;-75
2023/09/03 09:48:55;;;;;;;2.90;2.42;;;;;;;26.21;100.00;101162.25;5020912;28;20056;-75
2023/09/03 09:51:21;;;;;;;2.95;2.08;;;;;;;26.34;100.00;101160.00;5017622;28;20025;-75
2023/09/03 09:53:56;;;;;;;3.70;2.60;;;;;;;26.45;100.00;101167.47;5007670;28;20022;-75
2023/09/03 09:56:25;;;;;;;3.08;2.40;;;;;;;26.60;100.00;101161.97;5020871;28;20069;-75
2023/09/03 09:58:51;;;;;;;4.47;2.60;;;;;;;26.74;100.00;101162.16;5020807;28;20030;-75
2023/09/03 10:01:16;;;;;;;2.85;2.17;;;;;;;26.87;100.00;101166.38;5002179;28;20026;-75
2023/09/03 10:03:45;;;;;;;3.13;2.08;;;;;;;27.06;100.00;101162.50;5036892;28;20028;-75
2023/09/03 10:06:16;;;;;;;4.45;2.30;;;;;;;27.23;100.00;101155.38;5019191;28;20041;-75
2023/09/03 10:08:42;;;;;;;4.18;2.60;;;;;;;27.34;100.00;101153.44;5035831;28;20422;-75
2023/09/03 10:11:07;;;;;;;4.82;2.55;;;;;;;27.44;100.00;101154.72;5022037;28;20497;-74
2023/09/03 10:13:33;;;;;;;5.70;2.40;;;;;;;27.57;100.00;101158.94;5000794;28;20034;-75
2023/09/03 10:16:02;;;;;;;3.10;2.40;;;;;;;27.69;100.00;101151.25;5020262;28;20044;-74
2023/09/03 10:18:27;;;;;;;5.93;3.05;;;;;;;27.77;100.00;101148.06;5020691;28;20049;-75
2023/09/03 10:20:53;;;;;;;4.05;2.47;;;;;;;27.91;100.00;101144.53;5033323;28;20438;-75
2023/09/03 10:23:18;;;;;;;3.13;2.28;;;;;;;28.03;100.00;101143.41;5030257;28;20401;-75
2023/09/03 10:25:44;;;;;;;4.35;2.20;;;;;;;28.16;100.00;101144.66;5022717;28;20183;-74
2023/09/03 10:28:09;;;;;;;2.28;2.03;;;;;;;28.23;100.00;101141.06;5036653;28;20033;-75
2023/09/03 10:30:38;;;;;;;3.72;2.28;;;;;;;28.31;100.00;101144.78;5019751;28;20095;-75
2023/09/03 10:33:04;;;;;;;3.75;1.95;;;;;;;28.44;100.00;101148.91;5020063;28;20034;-75
2023/09/03 10:35:30;;;;;;;3.22;2.00;;;;;;;28.55;100.00;101146.09;5031396;28;20041;-75
2023/09/03 10:37:55;;;;;;;4.13;2.45;;;;;;;28.66;100.00;101150.63;5036589;28;20387;-75
2023/09/03 10:40:22;;;;;;;4.13;2.00;;;;;;;28.78;100.00;101148.63;5035953;28;20041;-75
2023/09/03 10:42:49;;;;;;;3.28;1.88;;;;;;;28.94;100.00;101149.06;5032434;28;20478;-75
2023/09/03 10:45:15;;;;;;;3.30;2.00;;;;;;;29.05;100.00;101152.81;5019849;28;20057;-75
2023/09/03 10:47:56;;;;;;;2.85;2.20;;;;;;;29.18;100.00;101138.94;5036489;28;20029;-75
2023/09/03 10:50:50;;;;;;;3.00;2.20;;;;;;;29.26;100.00;101143.44;5037232;28;20029;-75
2023/09/03 10:53:38;;;;;;;3.50;1.75;;;;;;;29.34;100.00;101138.56;5021124;28;20073;-75
2023/09/03 10:56:14;;;;;;;3.83;2.10;;;;;;;29.47;100.00;101139.75;5032233;28;20371;-75
2023/09/03 10:58:58;;;;;;;3.05;1.92;;;;;;;29.51;100.00;101142.66;5004414;28;20037;-75
2023/09/03 11:01:30;;;;;;;4.75;2.03;;;;;;;29.55;100.00;101144.25;5016340;28;20034;-75
2023/09/03 11:03:56;;;;;;;;;;;;;;;29.67;100.00;101140.22;5031819;28;20445;-75
2023/09/03 11:06:25;;;;;;;4.72;1.90;;;;;;;29.66;100.00;101132.84;5021347;28;19909;-75
2023/09/03 11:09:03;;;;;;;4.13;2.10;;;;;;;29.74;100.00;101133.66;5035603;28;20045;-75
2023/09/03 11:11:30;;;;;;;3.55;2.08;;;;;;;29.89;100.00;101138.09;5022730;28;20030;-75